Terminal Aerodrome Forecast
Issued by NWS

Home | Current Version | Previous Version | Text Only | Print | Product List | Glossary On
Versions: 1 2 3 4 5 6 7 8 9 10 11 12 13 14
777
FTUS44 KSJT 271223 AAA
TAFJCT
TAF AMD
KJCT 271223Z 2712/2812 VRB05KT P6SM BKN008
     FM271400 VRB05KT P6SM SCT020
     FM280000 11008KT P6SM SCT250
     FM280700 13007KT P6SM OVC015=

USA.gov is the U.S. government's official web portal to all federal, state and local government web resources and services.